Time;durP1;ratioP1;P1;durP2;ratioP2;P2;SDS_P1;SDS_P2;PMS_P1;PMS_P2;Temp;Humidity;BMP_temperature;BMP_pressure;BME280_temperature;BME280_humidity;BME280_pressure;Samples;Min_cycle;Max_cycle;Signal;HPM_P1;HPM_P2
2021/12/24 00:01:31;;;;;;;11.85;8.98;;;7.30;99.90;;;;;;6118191;23;20061;-96
2021/12/24 00:03:58;;;;;;;13.27;9.15;;;6.90;99.90;;;;;;6117630;23;20021;-96
2021/12/24 00:06:44;;;;;;;12.02;8.70;;;6.90;99.90;;;;;;6119273;23;20009;-96
2021/12/24 00:09:20;;;;;;;14.90;9.38;;;6.90;99.90;;;;;;6142909;23;20053;-96
2021/12/24 00:12:00;;;;;;;13.60;9.63;;;6.80;99.90;;;;;;6143498;23;20012;-96
2021/12/24 00:15:11;;;;;;;13.63;9.40;;;6.80;99.90;;;;;;6141839;23;20013;-96
2021/12/24 00:17:42;;;;;;;11.95;8.38;;;6.60;99.90;;;;;;6100970;23;20030;-96
2021/12/24 00:21:38;;;;;;;12.52;9.13;;;6.90;99.90;;;;;;6116416;23;20030;-96
2021/12/24 00:38:01;;;;;;;10.77;8.85;;;6.80;99.90;;;;;;6120804;23;20486;-96
2021/12/24 00:40:59;;;;;;;11.45;8.75;;;6.80;99.90;;;;;;6053151;23;20002;-96
2021/12/24 00:43:34;;;;;;;13.55;9.07;;;6.80;99.90;;;;;;6141713;23;20014;-96
2021/12/24 00:46:31;;;;;;;12.00;8.35;;;6.80;99.90;;;;;;6116284;23;20463;-96
2021/12/24 00:49:14;;;;;;;12.13;8.43;;;6.80;99.90;;;;;;6115723;23;20083;-96
2021/12/24 00:52:20;;;;;;;13.43;8.85;;;6.80;99.90;;;;;;6115432;23;20437;-96
2021/12/24 00:58:00;;;;;;;11.95;8.18;;;6.80;99.90;;;;;;6098000;23;20042;-96
2021/12/24 01:00:52;;;;;;;12.55;8.70;;;6.80;99.90;;;;;;6140338;23;20008;-96
2021/12/24 01:03:28;;;;;;;12.15;9.00;;;6.90;99.90;;;;;;6056194;23;20007;-96
2021/12/24 01:05:55;;;;;;;11.25;8.13;;;6.90;99.90;;;;;;6076976;23;20032;-96
2021/12/24 01:08:21;;;;;;;11.63;8.63;;;7.00;99.90;;;;;;6080893;23;20073;-96
2021/12/24 01:11:11;;;;;;;13.68;8.85;;;7.00;99.90;;;;;;6058256;23;20007;-96
2021/12/24 01:13:40;;;;;;;11.75;8.23;;;7.00;99.90;;;;;;6075049;23;20427;-96
2021/12/24 01:17:27;;;;;;;11.48;8.40;;;6.90;99.90;;;;;;6080718;23;20022;-96
2021/12/24 01:20:31;;;;;;;10.88;8.38;;;7.00;99.90;;;;;;6079264;23;20018;-96
2021/12/24 01:23:32;;;;;;;13.57;8.98;;;6.90;99.90;;;;;;6077638;23;20009;-96
2021/12/24 01:27:14;;;;;;;13.32;8.68;;;7.00;99.90;;;;;;6081509;23;20003;-96
2021/12/24 01:30:04;;;;;;;11.93;8.80;;;7.00;99.90;;;;;;6075353;23;20007;-96
2021/12/24 01:44:37;;;;;;;10.80;7.75;;;6.80;99.90;;;;;;6035466;23;20100;-96
2021/12/24 01:47:15;;;;;;;12.13;8.63;;;6.70;99.90;;;;;;6053222;23;20072;-96
2021/12/24 01:49:43;;;;;;;12.05;8.23;;;6.70;99.90;;;;;;6028516;23;20508;-96
2021/12/24 01:52:15;;;;;;;12.77;8.57;;;6.40;99.90;;;;;;6051959;23;20019;-96
2021/12/24 01:54:46;;;;;;;11.30;8.50;;;7.10;99.90;;;;;;6052619;23;20023;-96
2021/12/24 01:57:16;;;;;;;10.85;8.48;;;6.70;99.90;;;;;;6005151;23;20023;-96
2021/12/24 01:59:47;;;;;;;12.10;7.82;;;6.70;99.90;;;;;;6028201;23;20063;-96
2021/12/24 02:02:35;;;;;;;12.93;8.65;;;6.80;99.90;;;;;;6028516;23;20018;-96
2021/12/24 02:05:04;;;;;;;12.07;8.05;;;6.80;99.90;;;;;;6050780;23;20015;-96
2021/12/24 02:07:45;;;;;;;11.15;7.53;;;6.90;99.90;;;;;;6052623;23;20007;-96
2021/12/24 02:10:16;;;;;;;11.57;8.23;;;6.80;99.90;;;;;;6029330;23;20015;-96
2021/12/24 02:12:49;;;;;;;10.38;7.55;;;6.80;99.90;;;;;;6029873;23;20026;-96
2021/12/24 02:15:31;;;;;;;12.95;7.90;;;7.30;99.90;;;;;;6029825;23;20019;-96
2021/12/24 02:29:17;;;;;;;9.38;7.05;;;7.10;99.90;;;;;;6141596;23;20037;-96
2021/12/24 02:31:44;;;;;;;10.77;7.43;;;7.00;99.90;;;;;;6140497;23;20002;-96
2021/12/24 02:34:14;;;;;;;10.15;7.28;;;7.40;99.90;;;;;;6092765;23;20022;-96
2021/12/24 02:37:06;;;;;;;9.82;6.50;;;7.20;99.90;;;;;;6120365;23;20018;-96
2021/12/24 02:39:38;;;;;;;9.20;6.85;;;7.10;99.90;;;;;;6138483;23;20014;-96
2021/12/24 02:42:24;;;;;;;9.55;7.05;;;7.20;99.90;;;;;;6092039;23;20158;-96
2021/12/24 02:44:53;;;;;;;11.82;7.72;;;7.20;99.90;;;;;;6114831;23;20014;-96
2021/12/24 02:47:53;;;;;;;12.80;8.55;;;7.20;99.90;;;;;;6140174;23;20005;-96
2021/12/24 02:56:13;;;;;;;10.07;7.05;;;7.10;99.90;;;;;;6140123;23;20069;-96
2021/12/24 02:58:51;;;;;;;9.63;6.55;;;7.00;99.90;;;;;;6113260;23;20032;-96
2021/12/24 03:01:23;;;;;;;13.00;8.65;;;7.00;99.90;;;;;;6091201;23;20030;-96
2021/12/24 03:03:53;;;;;;;15.32;8.73;;;6.80;99.90;;;;;;6138406;23;20022;-96
2021/12/24 03:06:42;;;;;;;12.45;8.88;;;6.80;99.90;;;;;;6113363;23;20006;-96
2021/12/24 03:09:19;;;;;;;12.52;9.30;;;6.70;99.90;;;;;;6112489;23;20014;-96
2021/12/24 03:11:57;;;;;;;13.57;9.40;;;6.70;99.90;;;;;;6114384;23;20025;-96
2021/12/24 03:14:25;;;;;;;13.02;9.27;;;6.60;99.90;;;;;;6139684;23;20006;-96
2021/12/24 03:16:58;;;;;;;14.43;9.48;;;6.50;99.90;;;;;;6112324;23;20105;-96
2021/12/24 03:19:30;;;;;;;11.85;8.88;;;6.50;99.90;;;;;;6139583;23;20017;-96
2021/12/24 03:22:29;;;;;;;12.02;8.43;;;6.50;99.90;;;;;;6115014;23;20067;-96
2021/12/24 03:24:58;;;;;;;11.93;8.70;;;6.50;99.90;;;;;;6114151;23;20076;-96
2021/12/24 03:27:25;;;;;;;12.07;8.55;;;6.50;99.90;;;;;;6113119;23;20006;-96
2021/12/24 03:30:12;;;;;;;11.48;8.05;;;6.40;99.90;;;;;;6113960;23;20066;-96
2021/12/24 03:32:39;;;;;;;12.65;7.65;;;6.40;99.90;;;;;;6139456;23;20021;-96
2021/12/24 03:35:06;;;;;;;11.23;7.60;;;6.30;99.90;;;;;;6109405;23;20057;-96
2021/12/24 03:37:36;;;;;;;8.13;6.80;;;6.30;99.90;;;;;;6113937;23;20014;-96
2021/12/24 03:40:21;;;;;;;8.77;7.05;;;6.20;99.90;;;;;;6109800;23;20002;-96
2021/12/24 03:42:50;;;;;;;12.23;7.90;;;6.20;99.90;;;;;;6138106;23;20025;-96
2021/12/24 03:45:29;;;;;;;10.65;7.47;;;6.30;99.90;;;;;;6110957;23;20006;-96
2021/12/24 03:48:39;;;;;;;11.30;7.60;;;6.40;99.90;;;;;;6115604;23;20009;-96
2021/12/24 03:51:28;;;;;;;11.90;8.18;;;6.40;99.90;;;;;;6139036;23;20025;-96
2021/12/24 03:56:46;;;;;;;11.48;7.45;;;6.40;99.90;;;;;;6107404;23;20073;-96
2021/12/24 03:59:13;;;;;;;9.75;6.68;;;6.50;99.90;;;;;;6082125;23;20002;-96
2021/12/24 04:01:47;;;;;;;8.25;6.70;;;6.40;99.90;;;;;;6083401;23;20014;-96
2021/12/24 04:04:13;;;;;;;11.27;6.75;;;6.50;99.90;;;;;;6104916;23;20014;-96
2021/12/24 04:06:47;;;;;;;9.77;6.00;;;6.50;99.90;;;;;;6105765;23;20011;-96
2021/12/24 04:09:14;;;;;;;8.85;6.43;;;6.60;99.90;;;;;;6107982;23;20022;-96
2021/12/24 04:11:41;;;;;;;7.97;6.05;;;6.60;99.90;;;;;;6083888;23;20011;-96
2021/12/24 04:14:14;;;;;;;7.40;5.88;;;6.30;99.90;;;;;;6103677;23;20007;-96
2021/12/24 04:16:45;;;;;;;9.07;5.85;;;6.80;99.90;;;;;;6106077;23;20386;-96
2021/12/24 04:24:50;;;;;;;9.70;6.20;;;7.00;99.90;;;;;;6107927;23;20544;-96
2021/12/24 04:24:59;;;;;;;8.02;6.05;;;6.80;99.90;;;;;;6122446;23;20046;-96
2021/12/24 04:27:28;;;;;;;8.32;5.97;;;6.80;99.90;;;;;;6107928;23;20018;-96
2021/12/24 04:30:02;;;;;;;9.85;5.72;;;6.90;99.90;;;;;;6112139;23;20021;-96
2021/12/24 04:32:47;;;;;;;9.50;6.07;;;6.80;99.90;;;;;;6113801;23;20006;-96
2021/12/24 04:51:59;;;;;;;8.18;6.57;;;6.80;99.90;;;;;;6137337;23;20073;-96
2021/12/24 05:02:57;;;;;;;8.57;6.53;;;6.80;99.90;;;;;;6137784;23;20012;-96
2021/12/24 05:05:44;;;;;;;12.52;7.30;;;6.40;99.90;;;;;;6136324;23;20026;-96
2021/12/24 05:08:19;;;;;;;8.98;7.05;;;6.60;99.90;;;;;;6136799;23;20021;-96
2021/12/24 05:10:51;;;;;;;9.07;7.45;;;6.50;99.90;;;;;;6111870;23;20002;-96
2021/12/24 05:13:24;;;;;;;10.60;7.15;;;6.50;99.90;;;;;;6134450;23;20125;-96
2021/12/24 05:15:57;;;;;;;11.32;7.35;;;6.40;99.90;;;;;;6133064;23;20021;-96
2021/12/24 05:18:32;;;;;;;11.95;8.13;;;6.40;99.90;;;;;;6115008;23;20002;-96
2021/12/24 05:23:46;;;;;;;14.15;8.65;;;6.40;99.90;;;;;;6138531;23;20076;-96
2021/12/24 05:26:14;;;;;;;11.05;8.18;;;6.40;99.90;;;;;;6088162;23;20524;-96
2021/12/24 05:28:46;;;;;;;12.38;8.60;;;6.40;99.90;;;;;;6115127;23;20013;-96
2021/12/24 05:31:14;;;;;;;11.75;8.35;;;6.40;99.90;;;;;;6137781;23;20006;-96
2021/12/24 05:33:46;;;;;;;13.45;8.98;;;6.50;99.90;;;;;;6132396;23;20009;-96
2021/12/24 05:36:35;;;;;;;13.88;8.60;;;6.40;99.90;;;;;;6111406;23;20038;-96
2021/12/24 05:39:22;;;;;;;10.57;8.55;;;6.40;99.90;;;;;;6138335;23;20437;-96
2021/12/24 05:41:50;;;;;;;11.07;8.82;;;6.40;99.90;;;;;;6138310;23;20071;-96
2021/12/24 05:44:17;;;;;;;14.18;9.88;;;6.70;99.90;;;;;;6064406;23;20006;-96
2021/12/24 05:46:45;;;;;;;10.88;8.68;;;6.40;99.90;;;;;;6136004;23;20012;-96
2021/12/24 05:49:15;;;;;;;13.15;8.43;;;6.50;99.90;;;;;;6138269;23;20042;-96
2021/12/24 05:51:41;;;;;;;12.25;8.90;;;6.50;99.90;;;;;;6136703;23;20068;-96
2021/12/24 05:54:11;;;;;;;13.75;9.38;;;6.50;99.90;;;;;;6137793;23;20025;-96
2021/12/24 05:56:39;;;;;;;12.68;8.98;;;6.40;99.90;;;;;;6103775;23;20029;-96
2021/12/24 05:59:14;;;;;;;16.45;9.80;;;6.30;99.90;;;;;;6110299;23;20006;-96
2021/12/24 06:01:41;;;;;;;12.65;9.07;;;6.30;99.90;;;;;;6135125;23;20500;-96
2021/12/24 06:04:31;;;;;;;12.60;9.52;;;6.20;99.90;;;;;;6132832;23;20006;-96
2021/12/24 06:06:58;;;;;;;16.25;9.73;;;6.20;99.90;;;;;;6121022;23;20006;-96
2021/12/24 06:09:25;;;;;;;15.18;9.63;;;6.30;99.90;;;;;;6111510;23;20017;-96
2021/12/24 06:11:53;;;;;;;12.25;8.93;;;6.80;99.90;;;;;;6131038;23;20022;-96
2021/12/24 06:14:25;;;;;;;10.90;8.82;;;6.50;99.90;;;;;;6087398;23;20014;-96
2021/12/24 06:17:09;;;;;;;15.98;9.32;;;6.70;99.90;;;;;;6111203;23;20022;-96
2021/12/24 06:20:10;;;;;;;13.02;9.77;;;6.60;99.90;;;;;;6130138;23;20026;-96
2021/12/24 06:22:38;;;;;;;13.38;10.02;;;6.50;99.90;;;;;;6128686;23;20010;-96
2021/12/24 06:25:06;;;;;;;12.43;8.80;;;6.40;99.90;;;;;;6138441;23;20022;-96
2021/12/24 06:27:35;;;;;;;15.63;10.48;;;6.70;99.90;;;;;;6138218;23;20006;-96
2021/12/24 06:30:09;;;;;;;13.05;8.75;;;6.70;99.90;;;;;;6115223;23;20028;-96
2021/12/24 06:32:40;;;;;;;15.80;9.25;;;6.70;99.90;;;;;;6112840;23;20012;-96
2021/12/24 06:35:10;;;;;;;14.00;8.40;;;6.70;99.90;;;;;;6113852;23;20061;-96
2021/12/24 06:37:50;;;;;;;12.88;9.00;;;6.70;99.90;;;;;;6114567;23;20014;-95
2021/12/24 06:40:19;;;;;;;15.07;9.07;;;6.50;99.90;;;;;;6114191;23;20492;-95
2021/12/24 06:42:45;;;;;;;13.35;9.10;;;6.60;99.90;;;;;;6106343;23;20064;-96
2021/12/24 06:45:19;;;;;;;11.00;8.73;;;6.60;99.90;;;;;;6106841;23;20006;-96
2021/12/24 06:47:47;;;;;;;13.85;9.13;;;6.50;99.90;;;;;;6138121;23;20013;-96
2021/12/24 06:50:20;;;;;;;13.38;9.05;;;6.50;99.90;;;;;;6106259;23;20006;-96
2021/12/24 06:52:45;;;;;;;16.38;9.13;;;6.60;99.90;;;;;;6126939;23;20013;-96
2021/12/24 06:55:11;;;;;;;16.63;9.07;;;6.60;99.90;;;;;;6128695;23;20024;-94
2021/12/24 06:57:39;;;;;;;13.15;9.52;;;6.50;99.90;;;;;;6130331;23;20045;-96
2021/12/24 07:00:07;;;;;;;15.13;9.38;;;6.40;99.90;;;;;;6130225;23;20002;-94
2021/12/24 07:02:33;;;;;;;17.45;8.85;;;6.30;99.90;;;;;;6128667;23;20089;-96
2021/12/24 07:04:58;;;;;;;14.07;9.02;;;6.60;99.90;;;;;;6129422;23;20049;-94
2021/12/24 07:07:24;;;;;;;12.52;8.88;;;6.60;99.90;;;;;;6129004;23;20011;-95
2021/12/24 07:09:50;;;;;;;12.25;9.00;;;6.70;99.90;;;;;;6126963;23;20030;-96
2021/12/24 07:12:15;;;;;;;14.68;9.80;;;6.50;99.90;;;;;;6102086;23;20006;-94
2021/12/24 07:14:42;;;;;;;15.98;10.00;;;6.60;99.90;;;;;;6127900;23;20033;-96
2021/12/24 07:17:10;;;;;;;13.15;10.05;;;6.80;99.90;;;;;;6127211;23;20085;-96
2021/12/24 07:19:36;;;;;;;14.18;10.55;;;6.30;99.90;;;;;;6102308;23;20006;-95
2021/12/24 07:22:02;;;;;;;14.95;10.57;;;6.70;99.90;;;;;;6127629;23;20093;-95
2021/12/24 07:24:28;;;;;;;14.93;10.93;;;6.30;99.90;;;;;;6101370;23;20101;-94
2021/12/24 07:26:54;;;;;;;14.23;9.73;;;6.40;99.90;;;;;;6127501;23;20013;-96
2021/12/24 07:29:19;;;;;;;14.95;10.40;;;6.30;99.90;;;;;;6101068;23;20006;-96
2021/12/24 07:31:45;;;;;;;15.45;10.07;;;6.60;99.90;;;;;;6100122;23;20013;-96
2021/12/24 07:34:11;;;;;;;18.60;9.38;;;6.30;99.90;;;;;;6100719;23;20002;-96
2021/12/24 07:36:37;;;;;;;12.27;9.80;;;6.40;99.90;;;;;;6100516;23;20069;-96
2021/12/24 07:39:04;;;;;;;14.68;9.20;;;6.70;99.90;;;;;;6100392;23;20002;-96
2021/12/24 07:41:29;;;;;;;14.23;9.25;;;6.80;99.90;;;;;;6100563;23;20013;-96
2021/12/24 07:43:56;;;;;;;10.45;7.97;;;6.60;99.90;;;;;;6126276;23;20006;-96
2021/12/24 07:46:24;;;;;;;11.63;7.15;;;7.10;99.90;;;;;;6126184;23;19998;-96
2021/12/24 07:48:50;;;;;;;11.50;6.97;;;7.10;99.90;;;;;;6127203;23;20081;-96
2021/12/24 07:54:02;;;;;;;11.75;7.50;;;7.30;99.90;;;;;;6125990;23;20416;-96
2021/12/24 07:56:28;;;;;;;12.73;8.00;;;6.80;99.90;;;;;;6126322;23;20014;-95
2021/12/24 07:58:55;;;;;;;12.02;8.02;;;6.70;99.90;;;;;;6126106;23;20009;-96
2021/12/24 08:01:27;;;;;;;10.73;8.13;;;6.70;99.90;;;;;;6100101;23;20010;-96
2021/12/24 08:03:54;;;;;;;14.45;8.90;;;6.80;99.90;;;;;;6126251;23;20010;-96
2021/12/24 08:06:23;;;;;;;13.98;9.13;;;6.80;99.90;;;;;;6100375;23;20030;-96
2021/12/24 08:08:48;;;;;;;10.63;8.07;;;6.90;99.90;;;;;;6126178;23;20006;-96
2021/12/24 08:11:14;;;;;;;13.07;8.90;;;6.90;99.90;;;;;;6126294;23;20009;-96
2021/12/24 08:13:40;;;;;;;10.90;7.78;;;7.00;99.90;;;;;;6126476;23;20315;-96
2021/12/24 08:16:06;;;;;;;11.40;7.97;;;7.20;99.90;;;;;;6125689;23;20009;-96
2021/12/24 08:18:32;;;;;;;11.32;7.13;;;7.10;99.90;;;;;;6125713;23;20069;-93
